BRN weather

Bern Belp Airport
Bern, Canton of Berne, Switzerland

Public forecast

Using degrees Celsius for public forecast. Weather courtesy of forecast.io.

Current aviation weather report (METAR) for Bern Belp Airport

Retrieved 2019/11/13 21:20 UTC (0 seconds ago):

LSZB 132120Z AUTO 15003KT CAVOK M01/M01 Q1005

Closest aviation forecast (TAF) to Bern Belp Airport

Closest forecast is Payerne Air Base, 24.3 nm (44.9 km) W. Retrieved 2019/11/13 17:00 UTC (4 hours ago):

TAF LSMP 131625Z 1317/1423 22004KT 9999 BKN070 PROB30 TEMPO 1321/1406 1500 BCFG